B Gas Commander — 9HA2927 — position and weather

sailwx.info

Track history (hours):
 
Tides and Currents Weather Stations Pressure Air Temp Water Temp Dewpoint Dewpoint Depression Visibility Wind Speed Wind Dir Waves Ship Positions

B Gas Commander

Last reported at 2017-Dec-11 16:57 UTC. Time now 2017-Dec-14 08:23 UTC.
Position N 35°60' E 014°24'.

Length 74 m; draft 4.2 m.

Type: Tanker. MMSI: 256792000.

Date/timePositionNaut miles runAvg speedWind from/ knotsBaromVisibWave heightAir tempDewpointWater temp
2017-Dec-11 16:57N 35°60' E 014°24'0 0.0
2017-Dec-11 16:30N 35°60' E 014°24'0 0.0
2017-Dec-11 16:00N 35°60' E 014°24'0 0.0
2017-Dec-11 15:30N 35°60' E 014°24'0 0.0
2017-Dec-11 15:01N 35°60' E 014°24'0 0.0
2017-Dec-11 14:24N 35°60' E 014°24'0 0.0
2017-Dec-11 14:00N 35°60' E 014°24'0 0.0
2017-Dec-11 13:27N 35°60' E 014°24'0 0.0
2017-Dec-11 13:00N 35°60' E 014°24'0 0.1
2017-Dec-11 12:30N 35°60' E 014°24'0 0.1
2017-Dec-11 12:00N 35°60' E 014°24'0 0.0
2017-Dec-11 11:30N 35°60' E 014°24'0 0.0
2017-Dec-11 10:57N 35°60' E 014°24'0 0.0
2017-Dec-11 10:30N 35°60' E 014°24'0 0.0
2017-Dec-11 10:00N 35°60' E 014°24'0 0.0
2017-Dec-11 09:30N 35°60' E 014°24'0 0.0
2017-Dec-11 09:00N 35°60' E 014°24'0 0.0
2017-Dec-11 08:27N 35°60' E 014°24'0 0.0
2017-Dec-11 08:00N 35°60' E 014°24'0 0.0
2017-Dec-11 07:30N 35°60' E 014°24'0 0.1
2017-Dec-11 07:00N 35°60' E 014°24'0 0.0
2017-Dec-11 06:30N 35°60' E 014°24'0 0.0
2017-Dec-11 06:00N 35°60' E 014°24'0 0.0
2017-Dec-11 05:28N 35°60' E 014°24'0 0.1
2017-Dec-11 05:00N 35°60' E 014°24'0 0.0
2017-Dec-11 04:27N 35°60' E 014°24'0 0.1
2017-Dec-11 04:00N 35°60' E 014°24'0 0.3
2017-Dec-11 03:29N 35°60' E 014°24'5 9.5
2017-Dec-11 03:00N 36°04' E 014°25'510.0
2017-Dec-11 02:30N 36°09' E 014°25'510.0
2017-Dec-11 02:00N 36°14' E 014°25'5 9.7
2017-Dec-11 01:30N 36°19' E 014°23'1310.4
2017-Dec-11 00:16N 36°29' E 014°13'28510.5
2017-Dec-09 21:05N 38°40' E 008°53'110.5
2017-Dec-09 20:59N 38°40' E 008°51'510.7
2017-Dec-09 20:29N 38°42' E 008°45'510.5
2017-Dec-09 19:59N 38°44' E 008°39'31010.0
2017-Dec-08 12:53N 43°08' E 005°03'510.4
2017-Dec-08 12:24N 43°13' E 005°01'410.4
2017-Dec-08 12:00N 43°17' E 004°60'510.2
2017-Dec-08 11:30N 43°22' E 004°58'5 9.5
2017-Dec-08 11:00N 43°24' E 004°52'2 0.1
2017-Dec-07 15:53N 43°25' E 004°50'0 1.2
2017-Dec-07 15:30N 43°25' E 004°51'4 8.1
2017-Dec-07 15:00N 43°24' E 004°56'5 9.1
2017-Dec-07 14:30N 43°20' E 004°59'  
Track history (hours):
 
Tides and Currents Weather Stations Pressure Air Temp Water Temp Dewpoint Dewpoint Depression Visibility Wind Speed Wind Dir Waves Ship Positions

B Gas Commander

Last reported at 2017-Dec-11 16:57 UTC. Time now 2017-Dec-14 08:23 UTC.
Position N 35°60' E 014°24'.

Length 74 m; draft 4.2 m.

Type: Tanker. MMSI: 256792000.

Date/timePositionNaut miles runAvg speedWind from/ knotsBaromVisibWave heightAir tempDewpointWater temp
2017-Dec-11 16:57N 35°60' E 014°24'0 0.0
2017-Dec-11 16:30N 35°60' E 014°24'0 0.0
2017-Dec-11 16:00N 35°60' E 014°24'0 0.0
2017-Dec-11 15:30N 35°60' E 014°24'0 0.0
2017-Dec-11 15:01N 35°60' E 014°24'0 0.0
2017-Dec-11 14:24N 35°60' E 014°24'0 0.0
2017-Dec-11 14:00N 35°60' E 014°24'0 0.0
2017-Dec-11 13:27N 35°60' E 014°24'0 0.0
2017-Dec-11 13:00N 35°60' E 014°24'0 0.1
2017-Dec-11 12:30N 35°60' E 014°24'0 0.1
2017-Dec-11 12:00N 35°60' E 014°24'0 0.0
2017-Dec-11 11:30N 35°60' E 014°24'0 0.0
2017-Dec-11 10:57N 35°60' E 014°24'0 0.0
2017-Dec-11 10:30N 35°60' E 014°24'0 0.0
2017-Dec-11 10:00N 35°60' E 014°24'0 0.0
2017-Dec-11 09:30N 35°60' E 014°24'0 0.0
2017-Dec-11 09:00N 35°60' E 014°24'0 0.0
2017-Dec-11 08:27N 35°60' E 014°24'0 0.0
2017-Dec-11 08:00N 35°60' E 014°24'0 0.0
2017-Dec-11 07:30N 35°60' E 014°24'0 0.1
2017-Dec-11 07:00N 35°60' E 014°24'0 0.0
2017-Dec-11 06:30N 35°60' E 014°24'0 0.0
2017-Dec-11 06:00N 35°60' E 014°24'0 0.0
2017-Dec-11 05:28N 35°60' E 014°24'0 0.1
2017-Dec-11 05:00N 35°60' E 014°24'0 0.0
2017-Dec-11 04:27N 35°60' E 014°24'0 0.1
2017-Dec-11 04:00N 35°60' E 014°24'0 0.3
2017-Dec-11 03:29N 35°60' E 014°24'5 9.5
2017-Dec-11 03:00N 36°04' E 014°25'510.0
2017-Dec-11 02:30N 36°09' E 014°25'510.0
2017-Dec-11 02:00N 36°14' E 014°25'5 9.7
2017-Dec-11 01:30N 36°19' E 014°23'1310.4
2017-Dec-11 00:16N 36°29' E 014°13'28510.5
2017-Dec-09 21:05N 38°40' E 008°53'110.5
2017-Dec-09 20:59N 38°40' E 008°51'510.7
2017-Dec-09 20:29N 38°42' E 008°45'510.5
2017-Dec-09 19:59N 38°44' E 008°39'31010.0
2017-Dec-08 12:53N 43°08' E 005°03'510.4
2017-Dec-08 12:24N 43°13' E 005°01'410.4
2017-Dec-08 12:00N 43°17' E 004°60'510.2
2017-Dec-08 11:30N 43°22' E 004°58'5 9.5
2017-Dec-08 11:00N 43°24' E 004°52'2 0.1
2017-Dec-07 15:53N 43°25' E 004°50'0 1.2
2017-Dec-07 15:30N 43°25' E 004°51'4 8.1
2017-Dec-07 15:00N 43°24' E 004°56'5 9.1
2017-Dec-07 14:30N 43°20' E 004°59'  

Dump ship's entire track history